Time;durP1;ratioP1;P1;durP2;ratioP2;P2;SDS_P1;SDS_P2;PMS_P1;PMS_P2;Temp;Humidity;BMP_temperature;BMP_pressure;BME280_temperature;BME280_humidity;BME280_pressure;Samples;Min_cycle;Max_cycle;Signal;HPM_P1;HPM_P2
2021/10/13 00:01:02;;;;;;;1.85;0.98;;;10.90;98.50;;;;;;5011963;28;20108;-74
2021/10/13 00:03:28;;;;;;;1.15;0.82;;;10.90;98.50;;;;;;5013009;28;20030;-78
2021/10/13 00:05:53;;;;;;;2.72;1.10;;;11.00;98.50;;;;;;5013049;28;20378;-76
2021/10/13 00:08:19;;;;;;;1.85;0.90;;;10.90;98.40;;;;;;5012527;28;20175;-76
2021/10/13 00:10:46;;;;;;;1.65;0.93;;;10.90;98.50;;;;;;5013658;28;20025;-75
2021/10/13 00:13:13;;;;;;;2.72;1.02;;;10.90;98.60;;;;;;5028131;28;20124;-75
2021/10/13 00:15:39;;;;;;;2.67;0.90;;;10.80;98.70;;;;;;5013909;28;20021;-75
2021/10/13 00:18:05;;;;;;;1.92;0.88;;;10.70;98.70;;;;;;5012946;28;20038;-75
2021/10/13 00:20:31;;;;;;;2.10;0.90;;;10.70;98.80;;;;;;5013294;28;20060;-75
2021/10/13 00:22:57;;;;;;;2.40;0.88;;;10.60;98.80;;;;;;5012830;28;20149;-75
2021/10/13 00:25:22;;;;;;;3.45;0.95;;;10.60;98.90;;;;;;5013277;28;20460;-76
2021/10/13 00:27:48;;;;;;;1.55;0.93;;;10.60;99.00;;;;;;5013365;28;20025;-76
2021/10/13 00:30:14;;;;;;;2.15;0.90;;;10.60;99.00;;;;;;5012745;28;20049;-76
2021/10/13 00:32:40;;;;;;;1.98;1.10;;;10.60;99.00;;;;;;5028641;28;20022;-76
2021/10/13 00:35:05;;;;;;;4.10;1.10;;;10.50;99.00;;;;;;5012708;28;20021;-76
2021/10/13 00:37:31;;;;;;;4.00;1.02;;;10.60;99.00;;;;;;5013231;28;20026;-75
2021/10/13 00:39:57;;;;;;;3.72;1.13;;;10.60;99.00;;;;;;5012531;28;20478;-76
2021/10/13 00:42:22;;;;;;;2.70;1.23;;;10.50;98.90;;;;;;5028402;28;20092;-76
2021/10/13 00:44:48;;;;;;;1.95;1.10;;;10.50;98.90;;;;;;5013344;28;20026;-76
2021/10/13 00:47:14;;;;;;;2.05;0.88;;;10.50;98.90;;;;;;5027576;28;20022;-76
2021/10/13 00:49:40;;;;;;;3.53;1.40;;;10.50;98.90;;;;;;5012345;28;20446;-76
2021/10/13 00:52:06;;;;;;;4.15;1.65;;;10.50;98.90;;;;;;5027129;28;20454;-76
2021/10/13 00:54:32;;;;;;;4.05;2.15;;;10.40;98.90;;;;;;5012945;28;20014;-76
2021/10/13 00:56:58;;;;;;;4.40;1.63;;;10.40;98.90;;;;;;5012294;28;20018;-76
2021/10/13 00:59:24;;;;;;;2.00;1.25;;;10.40;98.90;;;;;;5012561;28;20049;-75
2021/10/13 01:01:54;;;;;;;5.20;2.28;;;10.40;98.90;;;;;;5027959;28;20445;-76
2021/10/13 01:04:29;;;;;;;7.47;2.28;;;10.30;98.90;;;;;;5012476;28;20018;-76
2021/10/13 01:07:03;;;;;;;5.78;1.77;;;10.40;98.90;;;;;;4996839;28;20500;-76
2021/10/13 01:09:44;;;;;;;8.35;1.70;;;10.40;98.80;;;;;;4991813;28;20393;-76
2021/10/13 01:12:24;;;;;;;2.40;1.13;;;10.40;98.80;;;;;;4992542;28;20033;-76
2021/10/13 01:15:02;;;;;;;5.22;1.70;;;10.40;98.80;;;;;;4993092;28;20019;-76
2021/10/13 01:17:48;;;;;;;4.82;1.67;;;10.40;98.70;;;;;;4991780;28;20019;-75
2021/10/13 01:20:32;;;;;;;3.85;1.63;;;10.40;98.70;;;;;;4991121;28;20281;-75
2021/10/13 01:23:35;;;;;;;4.90;1.48;;;10.40;98.70;;;;;;4991121;28;20020;-75
2021/10/13 01:26:18;;;;;;;5.38;1.60;;;10.40;98.60;;;;;;4990954;28;20026;-76
2021/10/13 01:28:46;;;;;;;3.83;1.20;;;10.50;98.60;;;;;;4992545;28;20019;-75
2021/10/13 01:31:24;;;;;;;3.33;1.13;;;10.50;98.60;;;;;;4990878;28;20025;-76
2021/10/13 01:33:58;;;;;;;1.73;1.23;;;10.50;98.50;;;;;;4992859;28;20030;-76
2021/10/13 01:36:31;;;;;;;4.90;1.40;;;10.50;98.50;;;;;;4993218;28;20080;-77
2021/10/13 01:38:59;;;;;;;2.53;0.90;;;10.40;98.50;;;;;;4991108;28;20106;-77
2021/10/13 01:41:26;;;;;;;5.75;1.20;;;10.40;98.60;;;;;;4993111;28;20019;-77
2021/10/13 01:43:54;;;;;;;3.13;1.20;;;10.30;98.60;;;;;;4992449;28;20018;-77
2021/10/13 01:46:22;;;;;;;4.38;1.30;;;10.30;98.70;;;;;;4991940;28;20018;-77
2021/10/13 01:48:50;;;;;;;4.05;1.40;;;10.30;98.70;;;;;;4992552;28;20036;-75
2021/10/13 01:51:16;;;;;;;2.63;1.15;;;10.30;98.80;;;;;;4990749;28;20252;-75
2021/10/13 01:53:44;;;;;;;2.15;1.02;;;10.30;98.80;;;;;;4992539;28;20022;-76
2021/10/13 01:56:13;;;;;;;2.05;1.23;;;10.20;98.70;;;;;;4991998;28;20034;-76
2021/10/13 01:58:41;;;;;;;2.47;1.58;;;10.20;98.70;;;;;;4991244;28;20085;-76
2021/10/13 02:01:11;;;;;;;2.40;0.90;;;10.20;98.80;;;;;;5007041;28;20019;-75
2021/10/13 02:03:39;;;;;;;3.95;1.25;;;10.20;98.80;;;;;;5011475;28;20026;-75
2021/10/13 02:06:06;;;;;;;1.45;0.90;;;10.20;98.80;;;;;;4995880;28;20014;-76
2021/10/13 02:08:36;;;;;;;5.72;1.55;;;10.20;98.80;;;;;;5011509;28;20018;-75
2021/10/13 02:11:03;;;;;;;2.10;1.00;;;10.20;98.80;;;;;;4994356;28;20351;-76
2021/10/13 02:13:37;;;;;;;4.00;1.48;;;10.10;98.80;;;;;;4996336;28;20025;-76
2021/10/13 02:16:03;;;;;;;3.35;1.40;;;10.20;98.80;;;;;;4995607;28;20022;-76
2021/10/13 02:18:31;;;;;;;3.47;1.20;;;10.20;98.80;;;;;;4994955;28;20072;-75
2021/10/13 02:21:00;;;;;;;4.70;1.27;;;10.10;98.80;;;;;;4995828;28;20030;-76
2021/10/13 02:23:32;;;;;;;2.15;1.00;;;10.10;98.80;;;;;;4996140;28;20496;-76
2021/10/13 02:26:01;;;;;;;2.60;0.80;;;10.10;98.80;;;;;;4996149;28;20022;-76
2021/10/13 02:28:33;;;;;;;2.45;1.30;;;10.10;98.80;;;;;;4995063;28;20104;-76
2021/10/13 02:30:59;;;;;;;2.38;1.15;;;10.10;98.80;;;;;;4994186;28;20048;-76
2021/10/13 02:33:26;;;;;;;1.95;1.15;;;10.20;98.80;;;;;;4995925;28;20018;-76
2021/10/13 02:35:51;;;;;;;3.28;1.35;;;10.20;98.70;;;;;;4994568;28;20209;-76
2021/10/13 02:38:18;;;;;;;1.98;1.02;;;10.30;98.70;;;;;;4994052;28;20124;-76
2021/10/13 02:40:43;;;;;;;2.30;1.20;;;10.40;98.60;;;;;;4995899;28;20022;-76
2021/10/13 02:43:10;;;;;;;2.17;1.02;;;10.40;98.50;;;;;;4995150;28;20101;-76
2021/10/13 02:45:40;;;;;;;2.88;1.15;;;10.40;98.40;;;;;;4995830;28;20025;-76
2021/10/13 02:48:16;;;;;;;2.65;1.05;;;10.50;98.40;;;;;;4995002;28;20049;-76
2021/10/13 02:50:53;;;;;;;2.90;1.00;;;10.50;98.30;;;;;;4995644;28;20113;-76
2021/10/13 02:53:47;;;;;;;1.25;0.93;;;10.60;98.30;;;;;;4995157;28;20097;-76
2021/10/13 02:56:25;;;;;;;2.33;0.95;;;10.60;98.30;;;;;;4993681;28;20018;-76
2021/10/13 02:59:10;;;;;;;2.30;0.90;;;10.70;98.30;;;;;;4995478;28;20423;-75
2021/10/13 03:01:41;;;;;;;3.90;1.10;;;10.70;98.20;;;;;;5010654;28;20045;-75
2021/10/13 03:04:14;;;;;;;2.67;1.08;;;10.70;98.20;;;;;;4994735;28;20490;-75
2021/10/13 03:07:04;;;;;;;3.55;0.93;;;10.70;98.20;;;;;;4994163;28;20052;-76
2021/10/13 03:09:34;;;;;;;3.70;0.95;;;10.70;98.10;;;;;;4995411;28;20149;-75
2021/10/13 03:12:02;;;;;;;2.72;0.93;;;10.80;98.10;;;;;;4994994;28;20063;-76
2021/10/13 03:14:29;;;;;;;1.70;1.00;;;10.80;98.10;;;;;;5009070;28;20105;-76
2021/10/13 03:16:55;;;;;;;1.13;0.70;;;10.80;98.10;;;;;;4995233;28;20025;-76
2021/10/13 03:19:22;;;;;;;2.20;0.80;;;10.80;98.10;;;;;;4994514;28;20026;-76
2021/10/13 03:21:50;;;;;;;2.53;1.00;;;10.90;98.10;;;;;;5010181;28;20018;-77
2021/10/13 03:24:17;;;;;;;2.78;0.90;;;10.90;98.10;;;;;;4993120;28;20116;-76
2021/10/13 03:26:50;;;;;;;3.15;0.75;;;10.90;98.00;;;;;;4995037;28;20030;-76
2021/10/13 03:29:16;;;;;;;2.67;1.00;;;10.90;98.00;;;;;;4994164;28;20061;-75
2021/10/13 03:31:42;;;;;;;2.70;0.80;;;10.90;98.00;;;;;;4995341;28;20022;-76
2021/10/13 03:34:08;;;;;;;4.00;1.45;;;10.90;98.00;;;;;;5009315;28;20080;-76
2021/10/13 03:36:42;;;;;;;3.47;1.00;;;10.90;98.00;;;;;;4994867;28;20076;-76
2021/10/13 03:39:09;;;;;;;2.13;1.02;;;11.00;97.90;;;;;;4992959;28;20120;-76
2021/10/13 03:41:35;;;;;;;1.33;0.68;;;11.00;97.90;;;;;;4994742;28;20021;-76
2021/10/13 03:44:02;;;;;;;3.72;1.83;;;11.00;97.90;;;;;;4994701;28;20023;-76
2021/10/13 03:46:27;;;;;;;2.78;1.00;;;11.00;97.90;;;;;;5008927;28;20458;-76
2021/10/13 03:48:54;;;;;;;2.28;1.45;;;11.00;97.90;;;;;;4994498;28;20033;-76
2021/10/13 03:51:21;;;;;;;2.65;1.05;;;11.10;98.10;;;;;;5026184;28;20099;-76
2021/10/13 03:53:47;;;;;;;2.58;0.77;;;11.10;97.90;;;;;;5012770;28;20075;-76
2021/10/13 03:56:13;;;;;;;5.68;1.15;;;11.10;97.90;;;;;;5011366;28;20085;-78
2021/10/13 03:58:39;;;;;;;2.08;1.00;;;11.10;97.90;;;;;;5021840;28;20030;-78
2021/10/13 04:01:05;;;;;;;1.67;0.63;;;11.10;97.90;;;;;;4997388;28;20105;-78
2021/10/13 04:03:31;;;;;;;6.03;1.20;;;11.10;97.80;;;;;;4998996;28;20418;-78
2021/10/13 04:05:57;;;;;;;3.15;1.52;;;11.10;97.80;;;;;;5004658;28;20492;-78
2021/10/13 04:08:22;;;;;;;5.75;1.20;;;11.00;97.80;;;;;;4993340;28;20177;-78
2021/10/13 04:10:48;;;;;;;2.55;0.90;;;11.00;97.80;;;;;;5016243;28;20030;-78
2021/10/13 04:13:14;;;;;;;2.47;1.10;;;11.00;97.80;;;;;;4996791;28;20032;-76
2021/10/13 04:15:40;;;;;;;3.10;1.08;;;11.00;97.80;;;;;;4993973;28;20034;-78
2021/10/13 04:18:06;;;;;;;4.63;1.42;;;11.00;97.80;;;;;;4995888;28;20019;-76
2021/10/13 04:20:32;;;;;;;3.45;0.98;;;11.00;97.80;;;;;;5003483;28;20045;-75
2021/10/13 04:22:57;;;;;;;4.10;1.10;;;11.00;97.80;;;;;;5017547;28;20359;-77
2021/10/13 04:25:23;;;;;;;2.33;1.25;;;11.10;97.80;;;;;;4992908;28;20015;-76
2021/10/13 04:27:50;;;;;;;2.10;1.02;;;11.00;97.80;;;;;;5008864;28;20037;-76
2021/10/13 04:30:16;;;;;;;3.72;0.80;;;11.00;97.80;;;;;;4991639;28;20046;-76
2021/10/13 04:32:42;;;;;;;4.15;1.42;;;11.00;97.70;;;;;;4993402;28;20351;-76
2021/10/13 04:35:08;;;;;;;3.03;0.90;;;11.10;97.80;;;;;;4993149;28;20466;-76
2021/10/13 04:37:35;;;;;;;4.25;1.15;;;11.10;97.70;;;;;;4994656;28;20026;-76
2021/10/13 04:40:01;;;;;;;1.13;0.80;;;11.10;97.80;;;;;;5028413;28;20116;-77
2021/10/13 04:42:26;;;;;;;1.63;1.00;;;11.10;97.80;;;;;;5026545;28;20090;-77
2021/10/13 04:44:52;;;;;;;2.97;1.27;;;11.00;97.80;;;;;;4994564;28;20418;-77
2021/10/13 04:47:18;;;;;;;5.40;1.08;;;11.00;97.80;;;;;;4991326;28;20035;-75
2021/10/13 04:49:43;;;;;;;3.17;1.25;;;11.00;97.80;;;;;;5008612;28;20089;-76
2021/10/13 04:52:09;;;;;;;6.25;1.23;;;10.90;97.80;;;;;;5001939;28;20323;-77
2021/10/13 04:54:35;;;;;;;2.78;1.30;;;10.90;97.80;;;;;;5026635;28;20022;-76
2021/10/13 04:57:00;;;;;;;1.75;1.60;;;10.90;97.90;;;;;;5025691;28;20212;-75
2021/10/13 04:59:26;;;;;;;3.63;1.15;;;10.90;97.90;;;;;;5008840;28;20480;-75
2021/10/13 05:01:52;;;;;;;2.35;1.27;;;10.90;97.90;;;;;;5004997;28;20029;-75
2021/10/13 05:04:17;;;;;;;3.35;1.13;;;10.90;97.90;;;;;;4990396;28;20110;-75
2021/10/13 05:06:43;;;;;;;2.40;0.90;;;10.90;97.90;;;;;;4990567;28;20018;-76
2021/10/13 05:09:10;;;;;;;3.00;1.27;;;10.90;97.90;;;;;;4990407;28;20038;-75
2021/10/13 05:11:35;;;;;;;2.58;1.27;;;10.90;97.90;;;;;;5002767;28;20033;-74
2021/10/13 05:14:01;;;;;;;2.05;0.98;;;10.90;97.90;;;;;;5014892;28;20030;-74
2021/10/13 05:16:27;;;;;;;5.47;1.60;;;10.80;97.90;;;;;;5004129;28;20042;-74
2021/10/13 05:18:52;;;;;;;3.17;1.20;;;10.80;98.00;;;;;;5014310;28;20367;-74
2021/10/13 05:21:18;;;;;;;4.35;1.50;;;10.80;98.00;;;;;;4991885;28;20039;-77
2021/10/13 05:23:44;;;;;;;2.00;1.23;;;10.80;98.00;;;;;;4992669;28;20443;-74
2021/10/13 05:26:10;;;;;;;3.58;1.30;;;10.80;98.00;;;;;;4992672;28;20014;-75
2021/10/13 05:28:35;;;;;;;4.63;1.40;;;10.70;98.00;;;;;;4991919;28;20014;-74
2021/10/13 05:31:01;;;;;;;3.05;1.48;;;10.70;98.10;;;;;;4992717;28;20479;-74
2021/10/13 05:33:27;;;;;;;3.10;1.42;;;10.60;98.10;;;;;;4991816;28;20414;-74
2021/10/13 05:35:52;;;;;;;3.63;1.30;;;10.50;98.20;;;;;;5007377;28;20025;-74
2021/10/13 05:38:18;;;;;;;4.03;1.40;;;10.50;98.20;;;;;;4991595;28;20443;-74
2021/10/13 05:40:44;;;;;;;2.10;1.30;;;10.40;98.30;;;;;;4991623;28;20030;-75
2021/10/13 05:43:09;;;;;;;3.45;1.50;;;10.40;98.60;;;;;;4991391;28;20025;-75
2021/10/13 05:45:35;;;;;;;2.20;1.17;;;10.40;98.30;;;;;;5006991;28;20041;-75
2021/10/13 05:48:01;;;;;;;3.50;1.35;;;10.40;98.30;;;;;;4992501;28;20438;-75
2021/10/13 05:50:26;;;;;;;2.05;1.00;;;10.40;98.30;;;;;;4991799;28;20425;-75
2021/10/13 05:52:52;;;;;;;2.58;1.10;;;10.40;98.40;;;;;;5007301;28;20025;-75
2021/10/13 05:55:18;;;;;;;2.95;1.33;;;10.40;98.40;;;;;;4991912;28;20375;-75
2021/10/13 05:57:43;;;;;;;2.50;1.30;;;10.40;98.30;;;;;;4992402;28;20029;-75
2021/10/13 06:00:10;;;;;;;3.10;1.27;;;10.40;98.30;;;;;;4992406;28;20030;-75
2021/10/13 06:02:35;;;;;;;4.85;1.40;;;10.40;98.30;;;;;;4991863;28;20014;-75
2021/10/13 06:05:03;;;;;;;3.25;1.33;;;10.50;98.30;;;;;;4992438;28;20033;-74
2021/10/13 06:07:28;;;;;;;3.95;1.00;;;10.40;98.20;;;;;;5006854;28;20022;-75
2021/10/13 06:09:54;;;;;;;3.05;1.33;;;10.50;98.20;;;;;;4992345;28;20447;-73
2021/10/13 06:12:20;;;;;;;6.75;1.20;;;10.50;98.10;;;;;;4992036;28;20030;-75
2021/10/13 06:14:46;;;;;;;1.65;0.93;;;10.50;98.10;;;;;;4992210;28;20029;-74
2021/10/13 06:17:12;;;;;;;3.92;1.30;;;10.60;98.00;;;;;;4992048;28;20029;-76
2021/10/13 06:19:37;;;;;;;5.10;2.08;;;10.60;97.90;;;;;;4991748;28;20140;-76
2021/10/13 06:22:03;;;;;;;4.25;1.40;;;10.70;97.90;;;;;;4992160;28;20447;-76
2021/10/13 06:24:29;;;;;;;3.90;1.40;;;10.70;97.80;;;;;;4991646;28;20541;-76
2021/10/13 06:26:54;;;;;;;4.18;1.25;;;10.80;97.80;;;;;;4992268;28;20422;-76
2021/10/13 06:29:20;;;;;;;6.43;1.83;;;10.80;97.70;;;;;;4990070;28;20046;-75
2021/10/13 06:31:46;;;;;;;6.03;1.75;;;10.90;97.70;;;;;;4992244;28;20447;-74
2021/10/13 06:34:12;;;;;;;4.80;2.10;;;10.90;97.70;;;;;;4992011;28;20109;-75
2021/10/13 06:36:38;;;;;;;3.17;1.88;;;10.90;97.70;;;;;;5006526;28;20018;-73
2021/10/13 06:39:03;;;;;;;4.28;1.60;;;11.00;97.60;;;;;;4990746;28;20105;-75
2021/10/13 06:41:29;;;;;;;4.10;2.00;;;11.00;97.60;;;;;;4990317;28;20034;-76
2021/10/13 06:43:55;;;;;;;4.03;1.40;;;11.00;97.60;;;;;;4992237;28;20018;-74
2021/10/13 06:46:21;;;;;;;2.95;1.40;;;11.10;97.60;;;;;;4991511;28;20029;-75
2021/10/13 06:48:47;;;;;;;3.70;1.30;;;11.10;97.80;;;;;;5008188;28;20020;-74
2021/10/13 06:51:12;;;;;;;3.22;1.17;;;11.10;97.50;;;;;;4994199;28;20030;-75
2021/10/13 06:53:38;;;;;;;6.45;1.35;;;11.10;97.50;;;;;;5009946;28;20435;-75
2021/10/13 06:56:04;;;;;;;4.03;1.33;;;11.10;97.50;;;;;;4995457;28;20469;-75
2021/10/13 06:58:30;;;;;;;2.38;1.20;;;11.10;97.50;;;;;;4994537;28;20022;-75
2021/10/13 07:00:56;;;;;;;2.38;1.20;;;11.20;97.50;;;;;;4995355;28;20482;-74
2021/10/13 07:03:21;;;;;;;3.83;1.38;;;11.20;97.50;;;;;;4994427;28;20042;-74
2021/10/13 07:05:47;;;;;;;4.70;1.30;;;11.10;97.50;;;;;;4995125;28;20019;-74
2021/10/13 07:08:13;;;;;;;2.42;1.38;;;11.10;97.50;;;;;;4993897;28;20028;-74
2021/10/13 07:10:38;;;;;;;5.43;1.50;;;11.10;97.50;;;;;;4994641;28;20037;-74
2021/10/13 07:13:04;;;;;;;5.43;1.48;;;11.20;97.50;;;;;;4995401;28;20467;-75
2021/10/13 07:15:30;;;;;;;3.38;1.13;;;11.10;97.40;;;;;;4994648;28;20097;-75
2021/10/13 07:17:55;;;;;;;1.50;1.10;;;11.10;97.40;;;;;;4995067;28;20132;-76
2021/10/13 07:20:22;;;;;;;3.00;0.90;;;11.10;97.50;;;;;;5009620;28;20029;-79
2021/10/13 07:22:47;;;;;;;5.75;1.05;;;11.20;97.40;;;;;;4994870;28;20025;-75
2021/10/13 07:25:14;;;;;;;1.50;1.10;;;11.20;97.30;;;;;;4994885;28;20022;-75
2021/10/13 07:27:40;;;;;;;4.57;1.10;;;11.30;97.20;;;;;;4994336;28;20053;-75
2021/10/13 07:30:07;;;;;;;4.30;1.30;;;11.30;97.20;;;;;;5009603;28;20438;-75
2021/10/13 07:32:35;;;;;;;3.15;0.90;;;11.30;97.20;;;;;;5008804;28;20015;-76
2021/10/13 07:35:01;;;;;;;3.60;1.05;;;11.40;97.10;;;;;;4994339;28;20077;-76
2021/10/13 07:37:28;;;;;;;4.55;1.33;;;11.40;97.10;;;;;;4993513;28;20124;-76
2021/10/13 07:39:54;;;;;;;3.60;1.42;;;11.40;97.10;;;;;;4994575;28;20029;-75
2021/10/13 07:42:20;;;;;;;2.75;1.15;;;11.40;97.10;;;;;;4994526;28;20031;-73
2021/10/13 07:44:46;;;;;;;3.80;1.05;;;11.50;97.10;;;;;;4993186;28;20025;-73
2021/10/13 07:47:12;;;;;;;4.05;1.38;;;11.60;97.00;;;;;;4993020;28;20022;-73
2021/10/13 07:49:39;;;;;;;2.13;1.17;;;11.60;97.00;;;;;;4993516;28;20352;-74
2021/10/13 07:52:05;;;;;;;4.63;1.05;;;11.60;97.00;;;;;;4994393;28;20018;-73
2021/10/13 07:54:31;;;;;;;6.03;1.00;;;11.70;97.00;;;;;;4992375;28;20018;-74
2021/10/13 07:56:56;;;;;;;4.43;0.95;;;11.80;96.90;;;;;;4994212;28;20228;-74
2021/10/13 07:59:22;;;;;;;2.13;1.00;;;11.90;96.80;;;;;;5008435;28;20033;-75
2021/10/13 08:01:48;;;;;;;3.22;1.10;;;11.90;96.70;;;;;;4993969;28;20049;-74
2021/10/13 08:04:13;;;;;;;5.38;1.10;;;12.00;96.70;;;;;;4994226;28;20485;-74
2021/10/13 08:06:39;;;;;;;1.95;1.00;;;12.10;96.60;;;;;;4993233;28;20399;-75
2021/10/13 08:09:05;;;;;;;1.83;0.90;;;12.20;96.60;;;;;;4993745;28;20414;-74
2021/10/13 08:11:31;;;;;;;6.03;1.20;;;12.20;96.50;;;;;;5008562;28;20021;-76
2021/10/13 08:13:58;;;;;;;4.35;1.13;;;12.20;96.50;;;;;;4993801;28;20058;-74
2021/10/13 08:16:23;;;;;;;3.20;1.20;;;12.20;96.40;;;;;;4993412;28;20073;-73
2021/10/13 08:18:49;;;;;;;3.35;1.10;;;12.20;96.40;;;;;;4994051;28;20018;-74
2021/10/13 08:21:15;;;;;;;2.63;1.05;;;12.30;96.40;;;;;;4993729;28;20477;-76
2021/10/13 08:23:40;;;;;;;3.38;1.20;;;12.30;96.30;;;;;;4993297;28;20582;-75
2021/10/13 08:26:06;;;;;;;4.18;1.02;;;12.30;96.30;;;;;;4993730;28;20022;-75
2021/10/13 08:28:32;;;;;;;2.00;1.00;;;12.40;96.30;;;;;;4993180;28;20027;-74
2021/10/13 08:30:58;;;;;;;5.65;1.58;;;12.40;96.20;;;;;;4993767;28;20077;-75
2021/10/13 08:33:24;;;;;;;2.28;1.25;;;12.40;96.20;;;;;;4993559;28;20026;-75
2021/10/13 08:35:50;;;;;;;2.53;1.20;;;12.40;96.20;;;;;;4993568;28;20018;-75
2021/10/13 08:38:16;;;;;;;2.42;0.93;;;12.40;96.20;;;;;;4993622;28;20030;-75
2021/10/13 08:40:42;;;;;;;3.85;1.20;;;12.50;96.10;;;;;;4992212;28;20026;-75
2021/10/13 08:43:09;;;;;;;4.10;1.15;;;12.50;96.10;;;;;;4993518;28;20439;-77
2021/10/13 08:45:37;;;;;;;5.10;1.13;;;12.50;96.00;;;;;;4993159;28;20110;-76
2021/10/13 08:48:04;;;;;;;1.42;0.95;;;12.50;96.00;;;;;;4993408;28;20109;-76
2021/10/13 08:50:34;;;;;;;2.90;1.00;;;12.50;96.00;;;;;;5007773;28;20121;-78
2021/10/13 08:53:12;;;;;;;3.25;1.00;;;12.50;96.00;;;;;;5008306;28;20018;-76
2021/10/13 08:55:40;;;;;;;2.78;1.00;;;12.60;96.00;;;;;;5007834;28;20033;-76
2021/10/13 08:58:13;;;;;;;2.53;1.10;;;12.60;96.00;;;;;;5007853;28;20534;-77
2021/10/13 09:00:40;;;;;;;2.20;0.93;;;12.60;95.90;;;;;;4991113;28;20062;-76
2021/10/13 09:03:06;;;;;;;1.92;1.08;;;12.70;95.80;;;;;;4992009;28;20041;-75
2021/10/13 09:05:32;;;;;;;2.75;0.90;;;12.70;95.80;;;;;;5007159;28;20019;-77
2021/10/13 09:07:58;;;;;;;2.42;1.08;;;12.70;95.70;;;;;;4992958;28;20026;-77
2021/10/13 09:10:35;;;;;;;3.40;0.93;;;12.70;95.70;;;;;;5007295;28;20045;-78
2021/10/13 09:13:04;;;;;;;2.08;0.80;;;12.80;95.70;;;;;;4992475;28;20027;-77
2021/10/13 09:15:31;;;;;;;2.17;1.00;;;12.70;95.70;;;;;;4991834;28;20110;-77
2021/10/13 09:18:06;;;;;;;2.83;1.17;;;12.70;95.70;;;;;;5007623;28;20080;-76
2021/10/13 09:20:35;;;;;;;3.28;1.17;;;12.70;95.80;;;;;;4990913;28;20489;-76
2021/10/13 09:23:15;;;;;;;2.78;0.82;;;12.60;95.80;;;;;;4992692;28;20106;-78
2021/10/13 09:25:41;;;;;;;2.47;0.70;;;12.70;95.80;;;;;;4990899;28;20434;-77
2021/10/13 09:28:07;;;;;;;4.07;1.02;;;12.60;95.80;;;;;;4992416;28;20128;-77
2021/10/13 09:30:40;;;;;;;4.22;1.10;;;12.60;95.80;;;;;;5006629;28;20050;-76
2021/10/13 09:33:16;;;;;;;6.20;1.00;;;12.60;95.80;;;;;;5007413;28;20478;-77
2021/10/13 09:35:50;;;;;;;2.42;1.20;;;12.60;95.80;;;;;;5007254;28;20014;-75
2021/10/13 09:38:25;;;;;;;2.20;0.95;;;12.70;95.80;;;;;;4992129;28;20089;-77
2021/10/13 09:40:58;;;;;;;2.15;1.05;;;12.70;95.80;;;;;;5006741;28;20041;-78
2021/10/13 09:43:31;;;;;;;2.50;1.10;;;12.70;95.60;;;;;;5007797;28;20117;-78
2021/10/13 09:46:04;;;;;;;1.98;0.93;;;12.80;95.70;;;;;;5007537;28;20046;-76
2021/10/13 09:48:30;;;;;;;2.58;0.93;;;12.80;95.60;;;;;;4990496;28;20022;-78
2021/10/13 09:50:56;;;;;;;1.17;0.75;;;12.90;95.60;;;;;;4992533;28;20366;-78
2021/10/13 09:53:30;;;;;;;5.10;0.93;;;12.90;95.50;;;;;;4992600;28;20073;-77
2021/10/13 09:55:56;;;;;;;3.97;1.52;;;12.90;95.40;;;;;;4991070;28;20054;-77
2021/10/13 09:58:31;;;;;;;6.05;1.20;;;13.00;95.40;;;;;;4992343;28;20474;-77
2021/10/13 10:01:18;;;;;;;2.88;1.00;;;13.00;95.30;;;;;;4990597;28;20097;-76
2021/10/13 10:03:46;;;;;;;3.38;0.93;;;13.10;95.20;;;;;;4990122;28;20359;-80
2021/10/13 10:06:14;;;;;;;1.58;0.82;;;13.20;95.10;;;;;;4991900;28;20043;-76
2021/10/13 10:08:52;;;;;;;2.60;0.95;;;13.30;95.00;;;;;;4989725;28;20027;-78
2021/10/13 10:11:31;;;;;;;1.08;0.75;;;13.40;94.90;;;;;;4990429;28;20383;-78
2021/10/13 10:13:57;;;;;;;3.38;0.90;;;13.50;94.80;;;;;;4991458;28;20026;-78
2021/10/13 10:16:49;;;;;;;1.67;0.68;;;13.60;94.60;;;;;;4990552;28;20031;-78
2021/10/13 10:19:23;;;;;;;3.03;0.98;;;13.70;94.30;;;;;;4991778;28;20121;-78
2021/10/13 10:22:10;;;;;;;3.33;1.02;;;13.80;94.10;;;;;;4989788;28;20037;-77
2021/10/13 10:24:37;;;;;;;0.93;0.80;;;14.00;93.90;;;;;;4995586;28;20026;-77
2021/10/13 10:27:25;;;;;;;2.00;0.88;;;14.20;93.70;;;;;;4995776;28;20023;-78
2021/10/13 10:30:04;;;;;;;6.95;1.38;;;14.20;93.60;;;;;;4993880;28;20054;-79
2021/10/13 10:32:30;;;;;;;3.10;0.80;;;14.20;93.40;;;;;;4994834;28;20339;-80
2021/10/13 10:35:05;;;;;;;1.23;0.80;;;14.20;93.40;;;;;;5010316;28;20474;-81
2021/10/13 10:37:38;;;;;;;3.05;1.02;;;14.20;93.30;;;;;;4994571;28;20069;-81
2021/10/13 10:40:10;;;;;;;0.70;0.70;;;14.10;93.30;;;;;;4994772;28;20088;-81
2021/10/13 10:42:44;;;;;;;2.13;0.80;;;14.10;93.40;;;;;;5010195;28;20442;-79
2021/10/13 10:45:29;;;;;;;2.40;0.70;;;14.20;93.10;;;;;;4995405;28;20031;-80
2021/10/13 10:48:06;;;;;;;2.30;0.65;;;14.20;93.00;;;;;;5009869;28;20105;-81
2021/10/13 10:50:41;;;;;;;3.65;0.85;;;14.30;92.80;;;;;;4994107;28;20038;-77
2021/10/13 10:53:09;;;;;;;3.22;0.90;;;14.30;92.80;;;;;;4994205;28;20447;-76
2021/10/13 10:55:37;;;;;;;0.52;0.50;;;14.30;92.80;;;;;;4993435;28;20019;-77
2021/10/13 10:58:19;;;;;;;2.35;0.65;;;14.30;92.70;;;;;;4995005;28;20037;-77
2021/10/13 11:00:46;;;;;;;1.60;0.70;;;14.30;92.70;;;;;;4994076;28;20077;-78
2021/10/13 11:03:22;;;;;;;1.80;0.70;;;14.30;92.60;;;;;;4994752;28;20494;-76
2021/10/13 11:05:49;;;;;;;2.25;0.77;;;14.30;92.50;;;;;;5009123;28;20033;-78
2021/10/13 11:08:15;;;;;;;3.83;0.82;;;14.30;92.60;;;;;;4995228;28;20134;-78
2021/10/13 11:10:42;;;;;;;1.88;0.88;;;14.20;92.70;;;;;;4993206;28;20038;-80
2021/10/13 11:13:07;;;;;;;1.10;0.70;;;14.20;92.60;;;;;;5009804;28;20022;-78
2021/10/13 11:15:34;;;;;;;1.75;0.73;;;14.20;92.50;;;;;;5010142;28;20069;-80
2021/10/13 11:18:14;;;;;;;3.25;0.80;;;14.20;92.50;;;;;;4994439;28;20149;-80
2021/10/13 11:20:40;;;;;;;1.95;0.85;;;14.20;92.40;;;;;;5009288;28;20025;-79
2021/10/13 11:23:07;;;;;;;3.97;0.88;;;14.30;92.20;;;;;;4995074;28;20026;-78
2021/10/13 11:25:35;;;;;;;4.00;1.25;;;14.40;92.10;;;;;;5010021;28;20022;-79
2021/10/13 11:28:14;;;;;;;3.72;0.90;;;14.50;91.90;;;;;;5008721;28;20026;-82
2021/10/13 11:30:43;;;;;;;3.78;0.95;;;14.70;91.80;;;;;;4993563;28;20050;-79
2021/10/13 11:33:11;;;;;;;2.45;0.60;;;14.80;91.60;;;;;;4994225;28;20061;-77
2021/10/13 11:35:37;;;;;;;2.13;0.90;;;14.90;91.30;;;;;;4993720;28;20541;-77
2021/10/13 11:38:05;;;;;;;0.60;0.50;;;15.00;91.10;;;;;;5009236;28;20117;-77
2021/10/13 11:40:32;;;;;;;2.80;0.95;;;15.20;90.90;;;;;;4994365;28;20038;-77
2021/10/13 11:42:59;;;;;;;2.17;0.95;;;15.40;90.60;;;;;;4994085;28;20126;-77
2021/10/13 11:45:26;;;;;;;0.90;0.60;;;15.30;90.40;;;;;;4993136;28;20414;-78
2021/10/13 11:47:52;;;;;;;0.68;0.55;;;15.30;90.50;;;;;;4993846;28;20046;-77
2021/10/13 11:50:22;;;;;;;1.90;0.50;;;15.10;90.40;;;;;;5009305;28;20034;-76
2021/10/13 11:52:56;;;;;;;1.02;0.73;;;15.00;90.40;;;;;;5008748;28;20018;-77
2021/10/13 11:55:28;;;;;;;2.75;0.30;;;14.90;90.50;;;;;;4993420;28;20025;-76
2021/10/13 11:58:03;;;;;;;1.88;0.77;;;14.90;90.60;;;;;;5009037;28;20033;-77
2021/10/13 12:00:32;;;;;;;1.45;0.80;;;14.80;90.60;;;;;;5009676;28;20022;-78
2021/10/13 12:03:08;;;;;;;1.63;0.60;;;14.80;90.60;;;;;;5008820;28;20026;-76
2021/10/13 12:05:54;;;;;;;2.50;0.93;;;14.80;90.70;;;;;;4994172;28;20018;-77
2021/10/13 12:08:36;;;;;;;1.85;0.50;;;14.80;90.40;;;;;;4994414;28;20033;-78
2021/10/13 12:11:04;;;;;;;2.65;0.60;;;14.90;90.40;;;;;;4993492;28;20505;-78
2021/10/13 12:13:32;;;;;;;3.65;1.17;;;14.90;90.50;;;;;;4992832;28;20034;-78
2021/10/13 12:16:00;;;;;;;1.90;0.60;;;15.00;90.20;;;;;;5008483;28;20041;-78
2021/10/13 12:18:31;;;;;;;3.08;1.08;;;15.10;90.00;;;;;;4994096;28;20022;-78
2021/10/13 12:21:02;;;;;;;2.08;1.10;;;15.20;90.00;;;;;;5008535;28;20118;-78
2021/10/13 12:23:39;;;;;;;3.20;0.60;;;15.30;89.70;;;;;;4992685;28;20034;-78
2021/10/13 12:26:23;;;;;;;2.60;0.88;;;15.30;89.70;;;;;;4992298;28;20033;-78
2021/10/13 12:28:53;;;;;;;1.95;0.70;;;15.20;89.20;;;;;;5008376;28;20027;-77
2021/10/13 12:31:21;;;;;;;2.00;0.70;;;15.20;90.00;;;;;;5008785;28;20046;-78
2021/10/13 12:33:58;;;;;;;1.92;0.80;;;15.10;89.50;;;;;;5008208;28;20037;-78
2021/10/13 12:36:35;;;;;;;3.45;0.70;;;15.10;89.50;;;;;;5008853;28;20076;-78
2021/10/13 12:39:25;;;;;;;1.85;0.60;;;15.00;89.70;;;;;;5008110;28;20426;-78
2021/10/13 12:41:51;;;;;;;1.77;0.70;;;15.10;89.60;;;;;;5004978;28;20479;-77
2021/10/13 12:44:22;;;;;;;1.55;0.90;;;15.10;89.40;;;;;;4992234;28;20026;-78
2021/10/13 12:46:59;;;;;;;1.80;0.70;;;15.20;89.50;;;;;;4991732;28;20027;-77
2021/10/13 12:49:36;;;;;;;1.20;0.70;;;15.20;89.30;;;;;;4993321;28;20459;-77
2021/10/13 12:52:05;;;;;;;2.42;0.52;;;15.30;89.20;;;;;;4992819;28;20033;-78
2021/10/13 12:54:35;;;;;;;2.63;0.52;;;15.30;89.10;;;;;;5008382;28;20424;-78
2021/10/13 12:57:01;;;;;;;0.85;0.55;;;15.40;89.00;;;;;;4991332;28;20041;-77